Time;durP1;ratioP1;P1;durP2;ratioP2;P2;SDS_P1;SDS_P2;PMS_P1;PMS_P2;Temp;Humidity;BMP_temperature;BMP_pressure;BME280_temperature;BME280_humidity;BME280_pressure;Samples;Min_cycle;Max_cycle;Signal;HPM_P1;HPM_P2
2022/05/09 00:00:17;;;;;;;18.88;5.90;;;6.60;99.90;;;;;;5055727;28;20080;-74
2022/05/09 00:02:43;;;;;;;34.15;7.15;;;6.60;99.90;;;;;;5056499;28;20063;-74
2022/05/09 00:05:13;;;;;;;24.30;6.05;;;6.60;99.90;;;;;;5056996;28;20044;-74
2022/05/09 00:07:39;;;;;;;26.42;7.85;;;6.50;99.90;;;;;;5056740;28;20068;-74
2022/05/09 00:10:05;;;;;;;32.30;6.88;;;6.50;99.90;;;;;;5056586;28;20080;-74
2022/05/09 00:12:32;;;;;;;21.00;5.60;;;6.50;99.90;;;;;;5056397;28;20044;-74
2022/05/09 00:14:57;;;;;;;29.73;7.18;;;6.40;99.90;;;;;;5056538;28;20059;-74
2022/05/09 00:17:23;;;;;;;20.80;6.38;;;6.40;99.90;;;;;;5088803;28;20040;-74
2022/05/09 00:19:49;;;;;;;23.98;6.40;;;6.40;99.90;;;;;;5056504;28;20080;-74
2022/05/09 00:22:14;;;;;;;24.17;6.07;;;6.40;99.90;;;;;;5056396;28;20041;-74
2022/05/09 00:24:40;;;;;;;27.85;5.50;;;6.30;99.90;;;;;;5056307;28;20049;-74
2022/05/09 00:27:06;;;;;;;29.42;5.60;;;6.30;99.90;;;;;;5054887;28;20483;-74
2022/05/09 00:29:32;;;;;;;25.02;5.43;;;6.20;99.90;;;;;;5055280;28;20036;-74
2022/05/09 00:31:57;;;;;;;24.42;6.25;;;6.20;99.90;;;;;;5056162;28;20041;-74
2022/05/09 00:34:24;;;;;;;25.92;5.78;;;6.20;99.90;;;;;;5056178;28;20036;-74
2022/05/09 00:36:52;;;;;;;23.33;6.40;;;6.10;99.90;;;;;;5056203;28;20053;-74
2022/05/09 00:39:18;;;;;;;24.77;6.00;;;6.10;99.90;;;;;;5055072;28;20048;-74
2022/05/09 00:41:45;;;;;;;49.00;7.65;;;6.10;99.90;;;;;;5056076;28;20076;-74
2022/05/09 00:44:18;;;;;;;32.63;7.10;;;6.10;99.90;;;;;;5056093;28;20045;-74
2022/05/09 00:46:45;;;;;;;;;;;6.10;99.90;;;;;;5056466;28;20064;-74
2022/05/09 00:49:27;;;;;;;17.08;4.53;;;6.00;99.90;;;;;;5055921;28;19925;-74
2022/05/09 00:51:56;;;;;;;21.67;6.03;;;6.00;99.90;;;;;;5056089;28;20094;-74
2022/05/09 00:54:24;;;;;;;20.70;6.53;;;5.90;99.90;;;;;;5055850;28;20104;-74
2022/05/09 00:57:00;;;;;;;27.08;6.78;;;5.90;99.90;;;;;;5054398;28;20415;-74
2022/05/09 00:59:31;;;;;;;32.38;7.78;;;5.90;99.90;;;;;;5055795;28;20045;-74
2022/05/09 01:01:57;;;;;;;19.27;5.82;;;6.00;99.90;;;;;;5055396;28;20077;-74
2022/05/09 01:04:26;;;;;;;31.52;6.72;;;5.80;99.90;;;;;;5055402;28;20072;-74
2022/05/09 01:06:53;;;;;;;29.83;6.38;;;5.80;99.90;;;;;;5055740;28;20041;-74
2022/05/09 01:09:19;;;;;;;24.15;5.82;;;5.80;99.90;;;;;;5055503;28;20041;-74
2022/05/09 01:11:47;;;;;;;21.48;6.22;;;5.80;99.90;;;;;;5054464;28;20365;-74
2022/05/09 01:14:29;;;;;;;21.35;5.40;;;5.80;99.90;;;;;;5055444;28;20041;-74
2022/05/09 01:16:56;;;;;;;24.67;5.95;;;5.70;99.90;;;;;;5055343;28;20120;-74
2022/05/09 01:19:26;;;;;;;20.85;6.28;;;5.70;99.90;;;;;;5055375;28;20033;-74
2022/05/09 01:21:51;;;;;;;24.63;6.75;;;5.80;99.90;;;;;;5055350;28;20056;-74
2022/05/09 01:24:20;;;;;;;26.67;5.85;;;5.70;99.90;;;;;;5055586;28;20037;-74
2022/05/09 01:26:46;;;;;;;20.80;5.90;;;5.70;99.90;;;;;;5055157;28;20514;-74
2022/05/09 01:29:36;;;;;;;30.55;6.65;;;5.70;99.90;;;;;;5055100;28;20059;-74
2022/05/09 01:32:04;;;;;;;25.15;7.18;;;5.70;99.90;;;;;;5055199;28;20045;-74
2022/05/09 01:34:30;;;;;;;31.75;7.65;;;5.70;99.90;;;;;;5053743;28;20045;-74
2022/05/09 01:37:04;;;;;;;28.92;6.75;;;5.70;99.90;;;;;;5055058;28;20044;-74
2022/05/09 01:39:31;;;;;;;25.92;8.98;;;5.70;99.90;;;;;;5054996;28;20049;-74
2022/05/09 01:41:57;;;;;;;37.80;7.28;;;5.70;99.90;;;;;;5054869;28;20131;-74
2022/05/09 01:44:23;;;;;;;27.35;7.97;;;5.60;99.90;;;;;;5054703;28;20123;-74
2022/05/09 01:49:35;;;;;;;27.50;7.80;;;5.60;99.90;;;;;;5053402;28;20056;-74
2022/05/09 01:52:05;;;;;;;24.85;7.60;;;5.60;99.90;;;;;;5054690;28;20048;-74
2022/05/09 01:54:32;;;;;;;35.67;8.65;;;5.60;99.90;;;;;;5054631;28;20103;-74
2022/05/09 01:56:57;;;;;;;36.45;7.75;;;5.60;99.90;;;;;;5053506;28;20154;-74
2022/05/09 01:59:23;;;;;;;30.13;7.60;;;5.60;99.90;;;;;;5054582;28;20504;-74
2022/05/09 02:02:00;;;;;;;38.78;9.77;;;5.50;99.90;;;;;;5054553;28;20045;-74
2022/05/09 02:04:27;;;;;;;29.58;8.80;;;5.50;99.90;;;;;;5054547;28;20049;-74
2022/05/09 02:06:54;;;;;;;39.40;8.52;;;5.60;99.90;;;;;;5054407;28;20048;-74
2022/05/09 02:09:20;;;;;;;25.58;7.78;;;5.50;99.90;;;;;;5054080;28;20407;-74
2022/05/09 02:11:46;;;;;;;33.22;9.88;;;5.50;99.90;;;;;;5053016;28;20125;-74
2022/05/09 02:14:12;;;;;;;43.65;8.50;;;5.50;99.90;;;;;;5054221;28;20520;-74
2022/05/09 02:16:38;;;;;;;37.92;7.85;;;5.60;99.90;;;;;;5054269;28;20080;-74
2022/05/09 02:19:06;;;;;;;31.08;7.85;;;5.60;99.90;;;;;;5053002;28;20077;-74
2022/05/09 02:21:33;;;;;;;41.97;8.10;;;5.60;99.90;;;;;;5053901;28;20033;-74
2022/05/09 02:23:58;;;;;;;23.00;6.72;;;5.60;99.90;;;;;;5054112;28;20131;-74
2022/05/09 02:26:27;;;;;;;21.77;7.05;;;5.60;99.90;;;;;;5054177;28;20120;-74
2022/05/09 02:28:53;;;;;;;26.67;7.50;;;5.60;99.90;;;;;;5053995;28;20051;-74
2022/05/09 02:31:20;;;;;;;21.25;5.85;;;5.60;99.90;;;;;;5053912;28;20127;-74
2022/05/09 02:33:46;;;;;;;24.40;7.78;;;5.60;99.90;;;;;;5053915;28;20040;-74
2022/05/09 02:36:12;;;;;;;25.65;7.22;;;5.60;99.90;;;;;;5053746;28;20067;-74
2022/05/09 02:38:38;;;;;;;26.80;7.97;;;5.50;99.90;;;;;;5053934;28;20047;-74
2022/05/09 02:41:05;;;;;;;22.30;6.50;;;5.50;99.90;;;;;;5053793;28;20392;-74
2022/05/09 02:43:31;;;;;;;27.20;6.63;;;5.50;99.90;;;;;;5053721;28;20120;-74
2022/05/09 02:46:03;;;;;;;26.30;6.43;;;5.60;99.90;;;;;;5053824;28;20037;-74
2022/05/09 02:48:35;;;;;;;24.15;6.70;;;5.50;99.90;;;;;;5053752;28;20044;-74
2022/05/09 02:51:01;;;;;;;29.35;7.25;;;5.50;99.90;;;;;;5053814;28;20136;-76
2022/05/09 02:53:26;;;;;;;28.63;7.03;;;5.50;99.90;;;;;;5053471;28;20120;-76
2022/05/09 02:55:52;;;;;;;24.00;7.07;;;5.50;99.90;;;;;;5053731;28;20135;-76
2022/05/09 02:58:17;;;;;;;23.45;6.20;;;5.50;99.90;;;;;;5053565;28;20124;-76
2022/05/09 03:00:43;;;;;;;25.75;6.32;;;5.40;99.90;;;;;;5053462;28;20045;-76
2022/05/09 03:05:53;;;;;;;22.77;6.40;;;5.30;99.90;;;;;;5053632;28;20070;-75
2022/05/09 03:08:18;;;;;;;26.80;7.35;;;5.20;99.90;;;;;;5053516;28;20041;-75
2022/05/09 03:10:45;;;;;;;19.40;5.80;;;5.10;99.90;;;;;;5053583;28;20053;-75
2022/05/09 03:13:13;;;;;;;26.38;6.28;;;5.10;99.90;;;;;;5053521;28;20041;-75
2022/05/09 03:15:42;;;;;;;23.30;5.60;;;5.00;99.90;;;;;;5053435;28;20045;-75
2022/05/09 03:18:09;;;;;;;21.02;5.22;;;5.00;99.90;;;;;;5053487;28;20048;-75
2022/05/09 03:20:36;;;;;;;25.15;6.78;;;5.00;99.90;;;;;;5053439;28;20037;-75
2022/05/09 03:23:04;;;;;;;20.50;6.88;;;4.90;99.90;;;;;;5053635;28;20489;-78
2022/05/09 03:25:30;;;;;;;23.88;6.07;;;4.90;99.90;;;;;;5053433;28;20048;-76
2022/05/09 03:27:56;;;;;;;21.17;5.65;;;4.80;99.90;;;;;;5053366;28;20045;-76
2022/05/09 03:30:22;;;;;;;23.30;6.40;;;4.80;99.90;;;;;;5053021;28;20052;-75
2022/05/09 03:32:48;;;;;;;17.48;5.55;;;4.80;99.90;;;;;;5053203;28;20064;-75
2022/05/09 03:35:14;;;;;;;31.45;6.53;;;4.70;99.90;;;;;;5053308;28;20052;-75
2022/05/09 03:37:40;;;;;;;27.08;7.20;;;4.70;99.90;;;;;;5053252;28;20510;-75
2022/05/09 03:40:07;;;;;;;17.55;5.78;;;4.60;99.90;;;;;;5052859;28;20041;-75
2022/05/09 03:42:32;;;;;;;26.05;6.05;;;4.60;99.90;;;;;;5051518;28;20068;-75
2022/05/09 03:44:58;;;;;;;21.92;6.05;;;4.60;99.90;;;;;;5052076;28;20052;-75
2022/05/09 03:47:23;;;;;;;19.42;7.25;;;4.60;99.90;;;;;;5051802;28;20048;-75
2022/05/09 03:49:50;;;;;;;23.15;5.60;;;4.50;99.90;;;;;;5053060;28;20045;-75
2022/05/09 03:52:16;;;;;;;23.20;5.53;;;4.50;99.90;;;;;;5053104;28;20037;-75
2022/05/09 03:54:42;;;;;;;26.13;6.13;;;4.50;99.90;;;;;;5051936;28;20400;-75
2022/05/09 03:57:08;;;;;;;22.27;7.22;;;4.50;99.90;;;;;;5052764;28;20041;-75
2022/05/09 03:59:33;;;;;;;24.70;6.45;;;4.50;99.90;;;;;;5052941;28;20041;-75
2022/05/09 04:01:59;;;;;;;29.65;6.68;;;4.60;99.90;;;;;;5052590;28;20106;-76
2022/05/09 04:04:25;;;;;;;32.58;7.85;;;4.70;99.90;;;;;;5054697;28;20045;-75
2022/05/09 04:06:51;;;;;;;23.58;6.45;;;4.70;99.90;;;;;;5056486;28;20053;-75
2022/05/09 04:09:17;;;;;;;22.90;6.72;;;4.80;99.90;;;;;;5056542;28;20092;-75
2022/05/09 04:11:45;;;;;;;26.98;6.28;;;4.80;99.90;;;;;;5056529;28;20083;-75
2022/05/09 04:14:11;;;;;;;21.65;6.20;;;4.90;99.90;;;;;;5056466;28;20114;-77
2022/05/09 04:16:52;;;;;;;28.25;6.63;;;4.90;99.90;;;;;;5056511;28;20492;-76
2022/05/09 04:19:19;;;;;;;25.52;6.70;;;4.90;99.90;;;;;;5056379;28;20044;-76
2022/05/09 04:21:44;;;;;;;29.35;6.75;;;5.00;99.90;;;;;;5056189;28;20484;-76
2022/05/09 04:24:10;;;;;;;17.80;6.25;;;5.00;99.90;;;;;;5056124;28;20040;-76
2022/05/09 04:26:36;;;;;;;26.83;7.18;;;5.10;99.90;;;;;;5056330;28;20045;-76
2022/05/09 04:29:03;;;;;;;31.70;7.75;;;5.10;99.90;;;;;;5056220;28;20152;-76
2022/05/09 04:31:29;;;;;;;27.70;6.97;;;5.20;99.90;;;;;;5055966;28;20496;-76
2022/05/09 04:33:55;;;;;;;30.50;6.93;;;5.40;99.90;;;;;;5056187;28;20041;-76
2022/05/09 04:36:22;;;;;;;22.60;6.43;;;5.60;99.90;;;;;;5056112;28;20055;-75
2022/05/09 04:38:50;;;;;;;26.48;7.15;;;5.80;99.90;;;;;;5055042;28;20496;-76
2022/05/09 04:41:18;;;;;;;30.48;7.95;;;6.00;99.90;;;;;;5056102;28;20053;-75
2022/05/09 04:43:44;;;;;;;24.42;7.47;;;6.10;99.90;;;;;;5055644;28;20503;-76
2022/05/09 04:46:11;;;;;;;30.88;6.25;;;6.20;99.90;;;;;;5054361;28;20049;-75
2022/05/09 04:48:38;;;;;;;19.92;6.32;;;6.40;99.90;;;;;;5055638;28;20064;-75
2022/05/09 04:51:03;;;;;;;26.40;8.25;;;6.50;99.90;;;;;;5054809;28;20045;-75
2022/05/09 04:53:29;;;;;;;31.27;7.05;;;6.70;99.90;;;;;;5055687;28;20094;-75
2022/05/09 04:55:56;;;;;;;27.08;5.97;;;6.80;99.90;;;;;;5055511;28;20051;-75
2022/05/09 04:58:22;;;;;;;24.20;7.07;;;7.00;99.90;;;;;;5055448;28;20443;-75
2022/05/09 05:00:48;;;;;;;22.02;6.10;;;7.10;99.90;;;;;;5055667;28;20095;-75
2022/05/09 05:03:14;;;;;;;18.38;5.90;;;7.20;99.90;;;;;;5054011;28;20049;-75
2022/05/09 05:05:42;;;;;;;19.52;6.05;;;7.30;99.90;;;;;;5055420;28;20044;-75
2022/05/09 05:08:08;;;;;;;24.77;6.65;;;7.40;99.90;;;;;;5055504;28;20049;-75
2022/05/09 05:10:34;;;;;;;21.05;5.90;;;7.50;99.90;;;;;;5055469;28;20124;-75
2022/05/09 05:13:03;;;;;;;20.52;5.50;;;7.70;99.90;;;;;;5055484;28;20119;-75
2022/05/09 05:15:30;;;;;;;24.42;5.78;;;7.70;99.90;;;;;;5054763;28;20119;-75
2022/05/09 05:17:56;;;;;;;26.33;6.32;;;7.70;99.90;;;;;;5055214;28;20049;-75
2022/05/09 05:20:22;;;;;;;19.27;6.90;;;7.80;99.90;;;;;;5054027;28;20064;-75
2022/05/09 05:22:49;;;;;;;20.95;5.70;;;8.00;99.90;;;;;;5055232;28;20108;-75
2022/05/09 05:25:24;;;;;;;38.65;7.10;;;8.10;99.90;;;;;;5054976;28;20049;-75
2022/05/09 05:27:50;;;;;;;26.45;6.00;;;8.30;99.90;;;;;;5053700;28;20041;-76
2022/05/09 05:30:17;;;;;;;18.80;6.60;;;8.40;99.90;;;;;;5055102;28;20128;-76
2022/05/09 05:32:44;;;;;;;22.02;5.72;;;8.60;99.90;;;;;;5054946;28;20051;-76
2022/05/09 05:35:13;;;;;;;20.50;6.32;;;8.70;99.90;;;;;;5054859;28;20040;-75
2022/05/09 05:37:39;;;;;;;20.58;5.32;;;8.80;99.90;;;;;;5055002;28;20045;-76
2022/05/09 05:40:05;;;;;;;21.45;5.47;;;9.00;99.90;;;;;;5054618;28;20037;-75
2022/05/09 05:42:32;;;;;;;14.93;6.32;;;9.20;99.90;;;;;;5053708;28;20049;-76
2022/05/09 05:44:57;;;;;;;29.15;5.50;;;9.30;99.90;;;;;;5054821;28;20037;-76
2022/05/09 05:47:24;;;;;;;13.77;5.60;;;9.50;99.90;;;;;;5054596;28;20059;-76
2022/05/09 05:49:50;;;;;;;14.60;5.97;;;9.60;99.90;;;;;;5054570;28;20130;-77
2022/05/09 05:52:16;;;;;;;14.52;5.88;;;9.70;99.90;;;;;;5053281;28;20079;-76
2022/05/09 05:54:45;;;;;;;16.63;5.55;;;9.80;99.90;;;;;;5054604;28;20073;-77
2022/05/09 05:57:22;;;;;;;12.95;6.40;;;9.90;99.90;;;;;;5054348;28;20132;-76
2022/05/09 05:59:59;;;;;;;15.98;5.18;;;10.00;99.90;;;;;;5054621;28;20120;-76
2022/05/09 06:02:26;;;;;;;13.48;5.82;;;10.10;99.90;;;;;;5054101;28;20064;-77
2022/05/09 06:04:52;;;;;;;17.23;5.80;;;10.20;99.90;;;;;;5054380;28;20102;-74
2022/05/09 06:07:19;;;;;;;12.23;5.75;;;10.30;99.90;;;;;;5054438;28;20041;-74
2022/05/09 06:09:46;;;;;;;13.18;5.93;;;10.40;99.90;;;;;;5054367;28;20037;-74
2022/05/09 06:12:14;;;;;;;16.80;5.57;;;10.60;99.90;;;;;;5054141;28;20051;-74
2022/05/09 06:14:40;;;;;;;16.73;5.93;;;10.60;99.90;;;;;;5052740;28;20055;-74
2022/05/09 06:17:07;;;;;;;13.05;5.50;;;10.90;99.90;;;;;;5054300;28;20040;-74
2022/05/09 06:19:33;;;;;;;16.35;5.65;;;11.10;99.90;;;;;;5054195;28;20119;-74
2022/05/09 06:21:59;;;;;;;16.55;5.45;;;11.20;99.90;;;;;;5054182;28;20044;-75
2022/05/09 06:24:25;;;;;;;21.00;6.40;;;11.30;99.90;;;;;;5054110;28;20131;-75
2022/05/09 06:26:51;;;;;;;13.90;5.15;;;11.50;99.90;;;;;;5051948;28;20089;-75
2022/05/09 06:29:18;;;;;;;10.45;4.90;;;11.70;99.90;;;;;;5053774;28;20072;-75
2022/05/09 06:31:45;;;;;;;13.68;4.95;;;11.80;99.90;;;;;;5053743;28;20472;-75
2022/05/09 06:34:11;;;;;;;15.77;5.72;;;12.00;99.90;;;;;;5053961;28;20041;-74
2022/05/09 06:36:37;;;;;;;12.75;5.38;;;12.20;99.90;;;;;;5053833;28;20055;-75
2022/05/09 06:39:05;;;;;;;16.58;4.80;;;12.20;99.90;;;;;;5053780;28;20041;-75
2022/05/09 06:41:30;;;;;;;12.57;4.47;;;12.20;99.90;;;;;;5053898;28;20476;-74
2022/05/09 06:43:56;;;;;;;15.63;5.50;;;12.30;99.90;;;;;;5053763;28;20044;-75
2022/05/09 06:46:22;;;;;;;16.80;5.22;;;12.40;99.90;;;;;;5053431;28;20049;-75
2022/05/09 06:48:48;;;;;;;10.98;4.03;;;12.60;99.90;;;;;;5053666;28;20040;-74
2022/05/09 06:51:14;;;;;;;17.80;5.43;;;12.70;99.90;;;;;;5053676;28;20041;-74
2022/05/09 06:53:40;;;;;;;11.60;4.60;;;12.90;99.90;;;;;;5053744;28;20048;-74
2022/05/09 06:56:06;;;;;;;14.45;5.05;;;13.10;99.90;;;;;;5053446;28;20045;-74
2022/05/09 06:58:32;;;;;;;13.15;4.38;;;13.10;99.90;;;;;;5053255;28;20064;-74
2022/05/09 07:00:58;;;;;;;15.10;4.85;;;13.40;99.90;;;;;;5053372;28;20381;-74
2022/05/09 07:03:25;;;;;;;14.35;5.05;;;13.50;99.90;;;;;;5053236;28;20122;-74
2022/05/09 07:05:51;;;;;;;14.57;4.80;;;13.50;99.90;;;;;;5053549;28;20095;-74
2022/05/09 07:08:19;;;;;;;14.15;4.55;;;13.70;99.90;;;;;;5053517;28;20083;-74
2022/05/09 07:10:46;;;;;;;14.30;4.43;;;13.90;99.90;;;;;;5053412;28;20055;-74
2022/05/09 07:13:11;;;;;;;14.57;4.80;;;14.00;99.90;;;;;;5053170;28;20040;-74
2022/05/09 07:15:37;;;;;;;13.50;4.15;;;14.10;99.90;;;;;;5052223;28;20136;-74
2022/05/09 07:18:04;;;;;;;11.27;4.13;;;14.30;99.90;;;;;;5053160;28;20547;-73
2022/05/09 07:20:32;;;;;;;13.18;4.15;;;14.40;99.90;;;;;;5053314;28;20098;-73
2022/05/09 07:23:05;;;;;;;17.35;4.65;;;14.60;99.90;;;;;;5053076;28;20048;-73
2022/05/09 07:25:30;;;;;;;11.45;4.03;;;14.60;99.90;;;;;;5053343;28;20041;-74
2022/05/09 07:27:56;;;;;;;12.70;3.90;;;14.50;99.90;;;;;;5053352;28;20429;-74
2022/05/09 07:30:25;;;;;;;15.63;4.10;;;14.70;99.90;;;;;;5053199;28;20623;-74
2022/05/09 07:32:52;;;;;;;11.35;4.32;;;14.90;99.90;;;;;;5053247;28;20049;-74
2022/05/09 07:35:18;;;;;;;12.82;4.28;;;14.80;99.90;;;;;;5053166;28;20072;-74
2022/05/09 07:37:47;;;;;;;12.23;4.32;;;14.80;99.90;;;;;;5052602;28;20468;-74
2022/05/09 07:40:15;;;;;;;12.40;4.60;;;15.10;99.90;;;;;;5057190;28;20037;-74
2022/05/09 07:42:43;;;;;;;12.52;4.68;;;15.10;99.90;;;;;;5057264;28;20053;-74
2022/05/09 07:45:11;;;;;;;11.63;4.32;;;15.20;99.90;;;;;;5057101;28;20080;-74
2022/05/09 07:47:38;;;;;;;11.38;4.20;;;15.40;99.90;;;;;;5056798;28;20473;-74
2022/05/09 07:50:04;;;;;;;9.75;3.88;;;15.40;99.90;;;;;;5055581;28;20179;-74
2022/05/09 07:52:30;;;;;;;14.77;4.20;;;15.40;99.90;;;;;;5056693;28;20047;-74
2022/05/09 07:54:56;;;;;;;10.18;3.95;;;15.60;99.90;;;;;;5055692;28;20056;-74
2022/05/09 07:57:21;;;;;;;15.45;4.30;;;15.80;99.90;;;;;;5056904;28;20124;-74
2022/05/09 07:59:47;;;;;;;12.57;3.92;;;15.90;99.90;;;;;;5056781;28;20068;-74
2022/05/09 08:02:13;;;;;;;10.57;4.18;;;16.10;99.90;;;;;;5055282;28;20139;-74
2022/05/09 08:04:39;;;;;;;10.75;3.38;;;16.30;99.90;;;;;;5056547;28;20128;-74
2022/05/09 08:07:05;;;;;;;10.38;4.15;;;16.30;99.90;;;;;;5056402;28;20037;-74
2022/05/09 08:09:31;;;;;;;11.75;4.13;;;16.50;99.90;;;;;;5055281;28;20067;-74
2022/05/09 08:11:58;;;;;;;9.93;3.85;;;16.60;99.90;;;;;;5056621;28;20048;-74
2022/05/09 08:14:24;;;;;;;8.65;3.83;;;16.50;99.90;;;;;;5055132;28;20542;-74
2022/05/09 08:16:51;;;;;;;14.88;4.45;;;16.70;99.90;;;;;;5054980;28;20395;-74
2022/05/09 08:19:17;;;;;;;12.32;4.43;;;17.00;99.90;;;;;;5056523;28;20041;-74
2022/05/09 08:21:44;;;;;;;13.52;4.05;;;17.00;99.90;;;;;;5056209;28;20068;-74
2022/05/09 08:24:10;;;;;;;13.50;4.85;;;17.30;99.90;;;;;;5056124;28;20369;-74
2022/05/09 08:26:36;;;;;;;10.57;4.00;;;17.40;99.90;;;;;;5056073;28;20434;-74
2022/05/09 08:29:02;;;;;;;12.55;4.85;;;17.50;99.90;;;;;;5055992;28;20460;-74
2022/05/09 08:31:28;;;;;;;10.23;4.47;;;17.50;99.90;;;;;;5056289;28;20087;-74
2022/05/09 08:33:56;;;;;;;13.82;4.72;;;17.70;99.90;;;;;;5054833;28;20121;-74
2022/05/09 08:39:08;;;;;;;15.45;4.90;;;17.90;99.90;;;;;;5056241;28;20132;-74
2022/05/09 08:41:57;;;;;;;10.85;4.32;;;18.20;99.90;;;;;;5056003;28;20029;-75
2022/05/09 08:45:14;;;;;;;12.57;4.20;;;18.30;99.90;;;;;;5054839;28;20057;-75
2022/05/09 08:48:05;;;;;;;11.07;4.35;;;18.20;99.90;;;;;;5043746;28;20106;-75
2022/05/09 08:51:03;;;;;;;13.88;4.10;;;18.50;99.90;;;;;;5054896;28;20049;-74
2022/05/09 08:53:34;;;;;;;10.90;3.67;;;18.50;99.90;;;;;;5054624;28;20048;-75
2022/05/09 08:56:01;;;;;;;12.65;4.15;;;18.60;99.90;;;;;;5055623;28;20488;-75
2022/05/09 08:58:39;;;;;;;8.75;3.95;;;18.90;99.90;;;;;;5058566;28;20052;-75
2022/05/09 09:01:11;;;;;;;12.18;4.65;;;19.00;99.90;;;;;;5061629;28;20132;-75
2022/05/09 09:03:43;;;;;;;12.43;4.68;;;19.10;99.90;;;;;;5055066;28;20144;-75
2022/05/09 09:06:27;;;;;;;11.47;4.13;;;19.30;99.90;;;;;;5055279;28;20056;-75
2022/05/09 09:09:38;;;;;;;13.15;4.70;;;19.40;99.90;;;;;;5055134;28;20041;-75
2022/05/09 09:12:37;;;;;;;10.30;4.55;;;19.50;99.90;;;;;;5087506;28;20132;-75
2022/05/09 09:15:06;;;;;;;13.90;4.40;;;19.60;99.90;;;;;;5055112;28;20076;-75
2022/05/09 09:17:58;;;;;;;14.45;4.68;;;19.80;99.90;;;;;;5055082;28;20060;-76
2022/05/09 09:20:25;;;;;;;13.63;4.60;;;19.80;99.90;;;;;;5043507;28;20143;-76
2022/05/09 09:22:55;;;;;;;14.02;4.78;;;19.80;99.90;;;;;;5053869;28;20053;-75
2022/05/09 09:26:02;;;;;;;17.77;4.80;;;19.80;99.90;;;;;;5055043;28;20084;-75
2022/05/09 09:28:47;;;;;;;12.70;4.72;;;19.80;99.90;;;;;;5033617;28;20409;-75
2022/05/09 09:31:18;;;;;;;19.20;5.18;;;20.00;99.90;;;;;;5057321;28;20040;-74
2022/05/09 09:34:02;;;;;;;11.27;4.57;;;20.20;99.90;;;;;;5063694;28;20041;-75
2022/05/09 09:36:37;;;;;;;11.60;4.50;;;20.50;99.90;;;;;;5054578;28;20041;-75
2022/05/09 09:39:17;;;;;;;12.55;4.63;;;20.50;99.90;;;;;;5054821;28;20128;-75
2022/05/09 09:41:43;;;;;;;14.38;4.93;;;20.60;99.90;;;;;;5054841;28;20091;-75
2022/05/09 09:44:12;;;;;;;12.25;4.72;;;20.60;99.90;;;;;;5054430;28;20048;-75
2022/05/09 09:47:26;;;;;;;14.10;4.80;;;20.70;99.90;;;;;;5054324;28;20512;-75
2022/05/09 09:50:21;;;;;;;11.95;4.95;;;20.60;99.90;;;;;;5045375;28;20143;-75
2022/05/09 09:52:50;;;;;;;14.05;5.18;;;20.60;99.90;;;;;;5054614;28;20041;-75
2022/05/09 09:55:32;;;;;;;11.25;5.00;;;20.50;99.90;;;;;;5053304;28;20084;-75
2022/05/09 09:58:18;;;;;;;13.50;6.30;;;20.30;99.90;;;;;;5053167;28;20099;-75
2022/05/09 10:00:44;;;;;;;19.10;5.57;;;20.30;99.90;;;;;;5053313;28;20558;-75
2022/05/09 10:03:27;;;;;;;14.82;4.35;;;20.20;99.90;;;;;;5064846;28;20428;-76
2022/05/09 10:05:54;;;;;;;13.40;4.93;;;20.40;99.90;;;;;;5054204;28;20059;-75
2022/05/09 10:08:38;;;;;;;16.90;5.70;;;20.30;99.90;;;;;;5052769;28;20048;-75
2022/05/09 10:11:04;;;;;;;16.60;4.57;;;20.50;99.90;;;;;;5055425;28;20115;-75
2022/05/09 10:13:43;;;;;;;11.25;4.43;;;20.40;99.90;;;;;;5065246;28;20518;-75
2022/05/09 10:16:13;;;;;;;16.23;4.57;;;20.40;99.90;;;;;;5072808;28;20135;-75
2022/05/09 10:18:42;;;;;;;12.73;4.35;;;20.70;99.90;;;;;;5073938;28;20044;-75
2022/05/09 10:24:47;;;;;;;16.50;5.45;;;20.70;99.90;;;;;;5072618;28;20055;-75
2022/05/09 10:26:55;;;;;;;11.32;4.75;;;20.50;99.90;;;;;;5073814;28;20056;-75
2022/05/09 10:29:23;;;;;;;13.43;4.35;;;20.70;97.60;;;;;;5072293;28;20052;-75
2022/05/09 10:31:57;;;;;;;15.48;5.00;;;20.30;98.10;;;;;;5071205;28;20577;-76
2022/05/09 10:34:38;;;;;;;11.43;4.05;;;20.10;95.30;;;;;;5071763;28;20048;-76
2022/05/09 10:37:14;;;;;;;13.85;4.97;;;20.30;99.30;;;;;;5072514;28;20040;-76
2022/05/09 10:39:45;;;;;;;12.85;4.85;;;20.50;99.90;;;;;;5073818;28;20082;-76
2022/05/09 10:42:15;;;;;;;13.65;4.85;;;20.70;99.90;;;;;;5073635;28;20051;-76
2022/05/09 10:44:53;;;;;;;14.85;4.30;;;20.30;98.80;;;;;;5073738;28;20048;-76
2022/05/09 10:47:28;;;;;;;12.93;4.40;;;20.40;99.90;;;;;;5073819;28;20067;-76
2022/05/09 10:50:15;;;;;;;12.43;4.68;;;20.60;99.90;;;;;;5073708;28;20123;-76
2022/05/09 10:53:06;;;;;;;16.52;5.15;;;20.30;96.00;;;;;;5073773;28;20097;-76
2022/05/09 10:55:39;;;;;;;13.15;3.88;;;20.40;97.00;;;;;;5072566;28;20218;-76
2022/05/09 10:58:14;;;;;;;13.77;5.05;;;20.50;99.90;;;;;;5073812;28;20059;-76
2022/05/09 11:00:50;;;;;;;13.10;4.78;;;20.40;97.80;;;;;;5072532;28;20044;-76
2022/05/09 11:03:22;;;;;;;13.70;4.90;;;20.30;96.30;;;;;;5073539;28;20057;-76
2022/05/09 11:06:00;;;;;;;17.70;5.80;;;20.20;99.30;;;;;;5073575;28;20503;-78
2022/05/09 11:08:55;;;;;;;11.68;5.40;;;20.20;99.90;;;;;;5073570;28;20044;-77
2022/05/09 11:11:32;;;;;;;15.70;5.15;;;20.60;99.90;;;;;;5073483;28;20080;-76
2022/05/09 11:14:08;;;;;;;17.42;5.20;;;20.90;99.90;;;;;;5071537;28;20484;-76
2022/05/09 11:16:44;;;;;;;14.00;5.97;;;20.60;99.90;;;;;;5073415;28;20041;-76
2022/05/09 11:19:37;;;;;;;15.88;5.40;;;20.90;99.90;;;;;;5073497;28;20116;-76
2022/05/09 11:22:30;;;;;;;16.58;5.97;;;20.80;99.90;;;;;;5073455;28;20059;-76
2022/05/09 11:25:01;;;;;;;13.10;5.40;;;20.90;99.90;;;;;;5073167;28;20488;-76
2022/05/09 11:27:36;;;;;;;15.02;5.10;;;20.70;99.90;;;;;;5073106;28;20480;-76
2022/05/09 11:30:27;;;;;;;14.73;6.07;;;20.70;99.90;;;;;;5073236;28;20053;-76
2022/05/09 11:33:19;;;;;;;15.45;5.47;;;20.90;99.90;;;;;;5071739;28;20109;-76
2022/05/09 11:35:48;;;;;;;17.58;5.55;;;20.30;99.90;;;;;;5073115;28;20040;-76
2022/05/09 11:38:26;;;;;;;14.05;5.35;;;20.10;99.90;;;;;;5073260;28;20037;-76
2022/05/09 11:41:11;;;;;;;18.98;5.60;;;20.30;99.90;;;;;;5073288;28;20056;-76
2022/05/09 11:43:48;;;;;;;17.27;5.78;;;20.10;99.90;;;;;;5073265;28;20044;-76
2022/05/09 11:46:42;;;;;;;13.63;5.07;;;20.20;99.90;;;;;;5071913;28;20067;-76
2022/05/09 11:49:11;;;;;;;13.63;5.95;;;20.60;99.90;;;;;;5071817;28;20041;-76
2022/05/09 11:51:49;;;;;;;14.75;5.22;;;20.50;99.90;;;;;;5073160;28;20048;-76
2022/05/09 11:54:21;;;;;;;16.85;5.50;;;20.30;99.90;;;;;;5071778;28;20052;-76
2022/05/09 11:56:54;;;;;;;14.13;5.20;;;20.60;99.90;;;;;;5071628;28;20053;-76
2022/05/09 11:59:26;;;;;;;16.33;5.75;;;20.60;99.90;;;;;;5072808;28;20529;-76
2022/05/09 12:01:52;;;;;;;;;;;20.70;99.90;;;;;;5073212;28;20555;-76
2022/05/09 12:04:28;;;;;;;24.00;5.18;;;20.00;99.90;;;;;;5072631;28;20015;-76
2022/05/09 12:06:53;;;;;;;15.05;5.50;;;20.40;99.90;;;;;;5071770;28;20045;-76
2022/05/09 12:10:15;;;;;;;14.07;5.15;;;19.90;99.90;;;;;;5072904;28;20040;-76
2022/05/09 12:12:55;;;;;;;15.13;5.30;;;20.20;99.90;;;;;;5056675;28;20480;-76
2022/05/09 12:15:21;;;;;;;14.60;5.18;;;20.50;99.90;;;;;;5071642;28;20525;-76
2022/05/09 12:18:06;;;;;;;14.32;5.13;;;19.90;99.90;;;;;;5072920;28;20143;-76
2022/05/09 12:20:38;;;;;;;12.25;5.00;;;20.40;99.90;;;;;;5072547;28;20128;-76
2022/05/09 12:23:11;;;;;;;14.25;5.15;;;20.10;99.90;;;;;;5072566;28;20100;-76
2022/05/09 12:25:40;;;;;;;14.55;5.00;;;19.60;99.90;;;;;;5073187;28;20049;-76
2022/05/09 12:28:19;;;;;;;16.52;5.05;;;20.20;99.90;;;;;;5074888;28;20124;-76
2022/05/09 12:30:49;;;;;;;14.55;5.20;;;20.40;99.90;;;;;;5076254;28;20098;-76
2022/05/09 12:33:24;;;;;;;13.40;4.63;;;20.40;99.90;;;;;;5108867;28;20123;-76
2022/05/09 12:35:54;;;;;;;18.05;5.22;;;20.40;99.90;;;;;;5076133;28;20127;-76
2022/05/09 12:38:26;;;;;;;17.98;4.88;;;20.50;99.90;;;;;;5074879;28;20192;-76
2022/05/09 12:41:08;;;;;;;11.63;4.80;;;20.30;99.90;;;;;;5076158;28;20055;-76
2022/05/09 12:43:36;;;;;;;15.85;4.35;;;20.60;99.90;;;;;;5074664;28;20119;-76
2022/05/09 12:46:04;;;;;;;15.52;4.68;;;20.50;99.90;;;;;;5076048;28;20037;-76
2022/05/09 12:48:30;;;;;;;13.38;4.45;;;20.20;99.90;;;;;;5075929;28;20040;-76
2022/05/09 12:51:08;;;;;;;14.98;4.70;;;19.60;99.90;;;;;;5074394;28;20057;-76
2022/05/09 12:53:36;;;;;;;16.48;4.22;;;19.90;99.90;;;;;;5074641;28;20395;-77
2022/05/09 12:56:13;;;;;;;17.85;4.55;;;19.70;99.90;;;;;;5075676;28;20472;-76
2022/05/09 12:58:45;;;;;;;15.10;3.80;;;19.60;99.90;;;;;;5075806;28;20041;-76
2022/05/09 13:01:19;;;;;;;11.63;3.97;;;19.70;99.90;;;;;;5075884;28;20048;-76
2022/05/09 13:03:56;;;;;;;11.55;4.32;;;19.90;99.90;;;;;;5068974;28;20048;-76
2022/05/09 13:06:26;;;;;;;18.15;4.50;;;19.60;98.60;;;;;;5055436;28;20056;-76
2022/05/09 13:08:51;;;;;;;16.42;3.80;;;19.60;99.90;;;;;;5055042;28;20387;-76
2022/05/09 13:11:31;;;;;;;11.38;3.10;;;19.50;75.00;;;;;;5055446;28;20469;-76